EST,Max TemperatureF,Mean TemperatureF,Min TemperatureF,Max Dew PointF,MeanDew PointF,Min DewpointF,Max Humidity, Mean Humidity, Min Humidity, Max Sea Level PressureIn, Mean Sea Level PressureIn, Min Sea Level PressureIn, Max VisibilityMiles, Mean VisibilityMiles, Min VisibilityMiles, Max Wind SpeedMPH, Mean Wind SpeedMPH, Max Gust SpeedMPH,PrecipitationIn, CloudCover, Events, WindDirDegrees
2014-2-1,51,40,29,31,25,21,85,61,36,30.16,30.02,29.88,10,10,6,12,4,18,T,8,Rain,146
2014-2-2,47,37,26,40,31,21,96,79,62,30.24,30.05,29.91,10,8,4,13,7,17,0.17,8,Rain,322
2014-2-3,31,24,17,21,16,12,81,64,47,30.41,30.26,30.15,10,9,2,13,6,18,0.00,4,,2
2014-2-4,32,24,16,23,16,11,84,66,47,30.46,30.26,30.00,10,6,0,13,4,17,0.39,3,Fog-Snow,54
2014-2-5,30,25,19,27,23,12,92,80,68,30.35,29.89,29.63,10,5,2,20,8,26,0.50,8,Rain-Snow,343
2014-2-6,24,16,7,14,11,4,91,77,62,30.45,30.36,30.30,10,9,2,14,5,20,T,6,Snow,254
2014-2-7,18,9,0,5,-3,-8,76,60,43,30.47,30.43,30.34,10,10,10,15,5,19,0.00,1,,252
2014-2-8,21,11,0,14,4,-4,87,67,46,30.42,30.32,30.18,10,9,2,8,1,10,T,5,Snow,208
2014-2-9,27,22,16,22,16,8,91,79,67,30.23,30.09,29.97,10,6,0,16,5,22,0.10,7,Fog-Snow,235
2014-2-10,21,11,1,9,4,-3,91,70,49,30.42,30.30,30.19,10,8,3,10,3,13,T,4,,297
2014-2-11,19,6,-7,5,-2,-11,91,72,53,30.52,30.48,30.41,10,6,2,8,1,11,0.00,1,,297
2014-2-12,32,12,-8,9,0,-12,86,57,28,30.50,30.31,30.10,10,8,3,9,1,11,0.00,0,,117
2014-2-13,36,27,17,23,14,7,74,62,49,30.07,29.82,29.62,10,9,7,8,3,11,0.00,2,,336
2014-2-14,33,25,17,21,18,12,88,68,47,29.77,29.68,29.52,10,7,2,17,7,26,0.01,8,Snow,274
2014-2-15,25,16,7,19,13,2,84,62,40,30.14,29.91,29.72,10,6,2,16,8,20,T,5,Snow,315
2014-2-16,26,15,4,19,13,1,88,78,68,30.38,30.10,29.98,10,4,1,14,6,20,0.02,7,Snow,290
2014-2-17,37,18,-2,33,13,-5,88,64,39,30.44,30.09,29.74,10,6,0,22,9,34,0.08,6,Fog-Rain-Snow,135
2014-2-18,44,38,31,30,27,21,82,62,41,30.10,29.91,29.78,10,6,2,22,9,34,0.09,6,Rain-Snow,235
2014-2-19,48,37,26,37,29,21,92,65,37,30.15,29.89,29.70,10,9,3,21,7,29,0.02,2,Rain,200
2014-2-20,54,38,21,45,30,18,92,77,61,30.14,29.91,29.65,10,6,1,12,4,16,0.30,4,Rain-Thunderstorm,133
2014-2-21,54,46,37,50,34,15,92,63,34,29.98,29.72,29.56,10,7,0,24,12,38,0.29,6,Fog-Rain,208
2014-2-22,52,43,34,26,21,14,64,47,30,30.07,30.00,29.93,10,10,10,20,8,31,0.00,1,,241
2014-2-23,40,33,26,31,25,11,85,61,37,30.13,30.06,30.02,10,10,10,14,5,20,0.00,5,,296
2014-2-24,31,27,22,12,10,6,65,51,36,30.21,30.17,30.11,10,10,10,20,8,33,0.00,2,,275
2014-2-25,27,24,20,15,13,10,84,67,50,30.18,30.12,30.00,10,7,1,13,6,16,T,8,Snow,273
2014-2-26,24,19,14,13,4,0,67,54,41,30.15,30.02,29.82,10,9,2,17,9,24,T,5,Snow,282
2014-2-27,22,14,5,12,3,-7,67,57,47,30.23,29.89,29.70,10,7,0,26,11,36,T,6,Snow,285
2014-2-28,28,15,1,8,-1,-6,79,54,29,30.38,30.28,30.19,10,10,10,13,3,19,0.00,0,,132